Teleost — CGCB — position and weather

sailwx.info

Track history (hours):
 
Tides and Currents Weather Stations Pressure Air Temp Water Temp Dewpoint Dewpoint Depression Visibility Wind Speed Wind Dir Waves Ship Positions

Teleost

Last reported at 2018-Apr-20 00:00 UTC. Time now 2018-Apr-20 00:52 UTC.
Position N 47°00' W 046°12'.

; draft 7.2 m.

Type: Ship. MMSI: 316002140.

Wind from 250 at 33 knots

Barometer 1011.7 mb
Air temperature 3.1 ° C
Dewpoint 3.1 ° C

Date/timePositionNaut miles runAvg speedWind from/ knotsBaromVisibWave heightAir tempDewpointWater temp
2018-Apr-20 00:00N 47°00' W 046°12'1212.3 250 / 331011.7 3.1 3.1
2018-Apr-19 23:00N 47°00' W 045°54'4 4.1 240 / 211011.2 3.6 3.6
2018-Apr-19 22:00N 47°00' W 046°00'1010.2 220 / 161010.7 3.1 3.2
2018-Apr-19 21:00N 46°54' W 045°48'12 6.1 230 / 141011.0 3.5 3.6
2018-Apr-19 19:00N 46°54' W 045°30'0 0.0 230 / 101009.8 4.0 4.1
2018-Apr-19 18:00N 46°54' W 045°30'7 7.3 250 / 141009.2 3.8 3.9
2018-Apr-19 17:00N 47°00' W 045°24'8 8.2 200 / 81009.0 3.8 3.9
2018-Apr-19 16:00N 47°00' W 045°12'4 2.0 180 / 61009.1 3.7 3.8
2018-Apr-19 14:00N 47°00' W 045°06'8 8.2 190 / 91010.5 3.9 3.9
2018-Apr-19 13:00N 47°00' W 044°54'4 4.1 210 / 111010.8 4.0 4.0
2018-Apr-19 12:00N 47°00' W 044°48'6 6.0 210 / 191010.5 3.9 3.9
2018-Apr-19 11:00N 46°54' W 044°48'8 8.2 240 / 161010.6 4.3 4.3
2018-Apr-19 10:00N 46°54' W 044°36'4 4.1 240 / 191010.1 4.2 4.3
2018-Apr-19 09:00N 46°54' W 044°30'7 7.3 260 / 201009.1 4.3 4.3
2018-Apr-19 08:00N 47°00' W 044°24'1010.2 260 / 281007.5 4.5 4.7
2018-Apr-19 07:00N 46°54' W 044°12'6 6.0 230 / 241007.0 5.5 5.6
2018-Apr-19 06:00N 47°00' W 044°12'4 4.1 210 / 231006.6 6.6 6.7
2018-Apr-19 05:00N 47°00' W 044°06'12 6.1 190 / 221007.0 7.1 7.2
2018-Apr-19 03:00N 47°00' W 043°48'0 0.0 150 / 241009.2 6.5 6.6
2018-Apr-19 02:00N 47°00' W 043°48'7 7.3 140 / 241011.2 6.2 6.2
2018-Apr-19 01:00N 46°54' W 043°42'12 6.1 130 / 231014.1 4.9 4.8
2018-Apr-18 23:00N 46°54' W 043°24'0 0.0 150 / 121017.6 3.0 2.9
2018-Apr-18 22:00N 46°54' W 043°24'4 4.1 160 / 161018.9 2.2 2.1
2018-Apr-18 21:00N 46°54' W 043°18'8 8.2 160 / 121019.0 1.6 1.5
2018-Apr-18 20:00N 46°54' W 043°06'8 8.2 210 / 81020.1 1.4 1.3
2018-Apr-18 19:00N 46°54' W 042°54'0 0.0 230 / 111020.3 1.7 1.6
2018-Apr-18 18:00N 46°54' W 042°54'0 0.0 250 / 121020.5 1.9 1.7
2018-Apr-18 17:00N 46°54' W 042°54'4 4.1 260 / 141020.5 2.0 1.8
2018-Apr-18 16:00N 46°54' W 043°00'2010.2 270 / 161020.7 1.7 1.5
2018-Apr-18 14:00N 46°42' W 043°24'7 7.3 280 / 161021.5 1.5 1.3
2018-Apr-18 13:00N 46°36' W 043°30'7 7.3 280 / 171021.7 1.2 1.1
2018-Apr-18 12:00N 46°30' W 043°36'1010.2 290 / 171021.6 1.2 1.1
2018-Apr-18 11:00N 46°24' W 043°48'2210.9 280 / 151021.5 0.9 0.8
2018-Apr-18 09:00N 46°06' W 044°06'7 7.3 290 / 171021.2 0.5 0.4
2018-Apr-18 08:00N 46°00' W 044°12'1010.3 280 / 181021.0 0.5 0.4
2018-Apr-18 07:00N 45°54' W 044°24'7 7.3 290 / 161021.0 0.5 0.4
2018-Apr-18 06:00N 45°48' W 044°30'17 8.7 280 / 181021.2 0.5 0.4
2018-Apr-18 04:00N 45°36' W 044°48'7 7.3 290 / 151022.0 0.3 0.1
2018-Apr-18 03:00N 45°30' W 044°54'1717.4 300 / 191022.3 0.3 0.2
2018-Apr-18 02:00N 45°18' W 045°12'7 7.3 310 / 181022.4 0.4 0.2
2018-Apr-18 01:00N 45°12' W 045°18'2512.4 300 / 201023.0 0.4 0.2
2018-Apr-17 23:00N 44°54' W 045°42'4 4.3 300 / 191022.8 0.1-0.1
2018-Apr-17 22:00N 44°54' W 045°48'1010.4 320 / 181022.0 0.2-0.2
2018-Apr-17 21:00N 44°48' W 046°00'7 7.4 310 / 211022.0 0.1-0.6
2018-Apr-17 20:00N 44°42' W 046°06'2110.4 310 / 221021.4 0.4-0.4
2018-Apr-17 18:00N 44°30' W 046°30'4 4.3 310 / 271020.6 1.6 0.8
2018-Apr-17 17:00N 44°30' W 046°36'1010.5 310 / 281020.4 3.0 1.5
2018-Apr-17 16:00N 44°24' W 046°48'7 7.4 290 / 251020.7 3.0 1.4
2018-Apr-17 15:00N 44°18' W 046°54'6 3.0 300 / 241020.9 2.8 1.5
2018-Apr-17 13:00N 44°12' W 046°54'0 0.0 300 / 221021.4 2.2 1.4
2018-Apr-17 12:00N 44°12' W 046°54'0 0.0 310 / 241021.3 1.9 1.1
2018-Apr-17 11:00N 44°12' W 046°54'7 7.4 310 / 261021.3 1.7 0.8
2018-Apr-17 10:00N 44°06' W 046°48'4 4.3 310 / 271021.4 1.3 0.5
2018-Apr-17 09:00N 44°06' W 046°54'1514.8 300 / 241021.7 1.1 0.5
2018-Apr-17 08:00N 43°54' W 047°06'0 0.0 300 / 231021.7 0.7 0.3
2018-Apr-17 07:00N 43°54' W 047°06'0 0.0 300 / 221021.7 0.6-0.0
2018-Apr-17 06:00N 43°54' W 047°06'6 3.0 320 / 251021.8 0.5-0.4
2018-Apr-17 04:00N 43°48' W 047°06'0 0.0 310 / 241022.3 -0.0-0.7
2018-Apr-17 03:00N 43°48' W 047°06'6 6.0 320 / 251022.5 -0.0-0.9
2018-Apr-17 02:00N 43°42' W 047°06'4 4.3 330 / 281022.3 -0.1-1.5
2018-Apr-17 01:00N 43°42' W 047°12'7 7.4 310 / 281022.3 -0.3-1.6
2018-Apr-17 00:00N 43°36' W 047°18'7 7.4 330 / 321022.2 -0.0-0.7
2018-Apr-16 23:00N 43°30' W 047°24'1110.6 320 / 241022.3 -0.3-0.4
2018-Apr-16 22:00N 43°24' W 047°36'7 7.4 300 / 221022.5 0.5 0.4
2018-Apr-16 21:00N 43°18' W 047°42'4 4.4 310 / 261022.6 0.8 0.6
2018-Apr-16 20:00N 43°18' W 047°48'7 7.4 310 / 261022.7 1.2 1.0
2018-Apr-16 19:00N 43°12' W 047°54'7 7.4 310 / 231023.1 1.3 1.0
2018-Apr-16 18:00N 43°06' W 048°00'1110.6 310 / 281023.6 1.0 0.5
2018-Apr-16 17:00N 43°00' W 048°12'7 7.4 310 / 261024.2 1.0 0.5
2018-Apr-16 16:00N 42°54' W 048°18'9 8.8 320 / 241024.6 1.4 1.2
2018-Apr-16 15:00N 42°54' W 048°30'7 7.4 320 / 231025.2 1.4 1.2
2018-Apr-16 14:00N 42°48' W 048°36'7 7.4 320 / 271025.3 1.3 0.8
2018-Apr-16 13:00N 42°42' W 048°42'1110.7 330 / 251025.3 1.7 1.4
2018-Apr-16 12:00N 42°36' W 048°54'4 4.4 330 / 241025.1 2.0 1.4
2018-Apr-16 11:00N 42°36' W 049°00'1110.7 340 / 241025.3 1.8 1.3
2018-Apr-16 10:00N 42°30' W 049°12'6 3.0 330 / 261025.1 1.6 1.3
2018-Apr-16 08:00N 42°24' W 049°12'4 4.4 340 / 281024.3 2.0 1.8
2018-Apr-16 07:00N 42°24' W 049°06'0 0.0 340 / 281023.8 2.2 2.0
2018-Apr-16 06:00N 42°24' W 049°06'4 4.4 330 / 311023.3 2.4 2.2
2018-Apr-16 05:00N 42°24' W 049°00'4 2.2 340 / 291023.1 2.5 2.3
2018-Apr-16 03:00N 42°24' W 048°54'0 0.0 330 / 321022.5 2.0 1.8
2018-Apr-16 02:00N 42°24' W 048°54'6 6.0 320 / 321022.1 2.1 1.9
2018-Apr-16 01:00N 42°18' W 048°54'4 1.5 320 / 311021.9 1.9 1.7
2018-Apr-15 22:00N 42°18' W 048°48'0 0.0 310 / 331019.8 2.1 1.9
2018-Apr-15 21:00N 42°18' W 048°48'0 0.0 310 / 321019.0 2.2 2.1
2018-Apr-15 20:00N 42°18' W 048°48'0 0.0 300 / 341018.4 2.6 2.4
2018-Apr-15 19:00N 42°18' W 048°48'6 3.0 310 / 331018.1 2.7 2.4
2018-Apr-15 17:00N 42°12' W 048°48'0 0.0 300 / 331018.3 2.9 2.7
2018-Apr-15 16:00N 42°12' W 048°48'0 0.0 310 / 351018.2 2.8 2.1
2018-Apr-15 15:00N 42°12' W 048°48'4 4.4 310 / 331018.2 2.8 2.4
2018-Apr-15 14:00N 42°12' W 048°42'7 3.7 300 / 331018.1 2.9 2.5
2018-Apr-15 12:00N 42°06' W 048°48'7 7.5 300 / 261017.6 2.3 2.2
2018-Apr-15 11:00N 42°00' W 048°54'1110.8 310 / 281016.7 2.9 2.7
2018-Apr-15 10:00N 41°54' W 049°06'6 6.0 300 / 271015.9 4.2 4.1
2018-Apr-15 09:00N 41°48' W 049°06'6 3.0 320 / 281015.3 4.2 4.1
2018-Apr-15 07:00N 41°54' W 049°06'0 0.0 320 / 311013.5 5.4 5.4
2018-Apr-15 06:00N 41°54' W 049°06'4 4.5 320 / 251012.2 7.8 7.8
2018-Apr-15 05:00N 41°54' W 049°00'4 4.5 310 / 171011.7 8.0 8.1
2018-Apr-15 04:00N 41°54' W 049°06'6 6.0 280 / 291011.3 10.510.6
2018-Apr-15 03:00N 42°00' W 049°06'0 0.0 280 / 261011.3 10.811.0
2018-Apr-15 02:00N 42°00' W 049°06'7 7.5 240 / 321010.2 12.913.1
2018-Apr-15 01:00N 42°06' W 049°12'0 0.0 240 / 321010.9 12.312.5
2018-Apr-15 00:00N 42°06' W 049°12'4 4.5 240 / 331011.1 12.112.3
2018-Apr-14 23:00N 42°06' W 049°18'1312.8 230 / 281011.2 11.411.7
2018-Apr-14 22:00N 42°18' W 049°24'7 7.5 240 / 261011.4 11.511.7
2018-Apr-14 21:00N 42°24' W 049°30'0 0.0 230 / 261011.2 11.611.9
2018-Apr-14 20:00N 42°24' W 049°30'7 7.5 230 / 221012.1 10.911.1
2018-Apr-14 19:00N 42°30' W 049°36'7 7.5 210 / 191012.5 9.910.1
2018-Apr-14 18:00N 42°36' W 049°42'0 0.0 200 / 151013.8 9.1 9.3
2018-Apr-14 17:00N 42°36' W 049°42'0 0.0 220 / 131014.8 9.3 9.4
2018-Apr-14 16:00N 42°36' W 049°42'6 6.0 240 / 121015.9 8.8 8.9
2018-Apr-14 15:00N 42°42' W 049°42'4 4.4 230 / 121016.1 8.0 8.1
2018-Apr-14 14:00N 42°42' W 049°48'6 6.0 250 / 91016.5 7.7 7.8
2018-Apr-14 13:00N 42°48' W 049°48'0 0.0 260 / 151016.4 7.7 7.9
2018-Apr-14 12:00N 42°48' W 049°48'4 4.4 260 / 161016.3 7.4 7.5
2018-Apr-14 11:00N 42°48' W 049°54'0 0.0 260 / 121015.7 6.9 7.0
2018-Apr-14 10:00N 42°48' W 049°54'6 6.0 260 / 161015.4 7.1 7.3
2018-Apr-14 09:00N 42°54' W 049°54'0 0.0 280 / 91015.0 7.8 7.9
2018-Apr-14 07:00N 42°54' W 049°54'1514.9 180 / 261014.0 5.8 5.9
2018-Apr-14 06:00N 43°06' W 050°06'7 7.4 160 / 231015.6 3.8 3.9
2018-Apr-14 05:00N 43°12' W 050°12'0 0.0 150 / 261017.4 3.4 3.3
2018-Apr-14 04:00N 43°12' W 050°12'2010.0 150 / 211019.0 3.0 2.9
2018-Apr-14 02:00N 43°30' W 050°24'7 7.4 160 / 221021.5 2.4 2.3
2018-Apr-14 01:00N 43°36' W 050°30'7 7.4 150 / 221022.7 1.8 1.6
2018-Apr-14 00:00N 43°42' W 050°36'1312.8 160 / 261023.6 1.8 1.6
2018-Apr-13 23:00N 43°54' W 050°42'7 3.7 170 / 161024.2 1.9 1.7
2018-Apr-13 21:00N 44°00' W 050°48'1312.8
2018-Apr-13 20:00N 44°12' W 050°54'1010.5 200 / 81025.6 1.6 0.8
2018-Apr-13 19:00N 44°18' W 051°06'6 6.0 190 / 71025.6 1.8 0.7
2018-Apr-13 18:00N 44°24' W 051°06'15 7.4 150 / 21025.5 1.8 0.4
2018-Apr-13 16:00N 44°36' W 051°18'7 7.4 330 / 21026.3 1.5 0.2
2018-Apr-13 15:00N 44°42' W 051°24'15 7.4 330 / 51026.5 1.5-0.1
2018-Apr-13 13:00N 44°54' W 051°36'13 6.4 350 / 81025.7 1.7 0.4
2018-Apr-13 11:00N 45°06' W 051°42'1514.7 330 / 111025.0 3.0 1.3
2018-Apr-13 10:00N 45°18' W 051°54'7 7.3 330 / 121024.1 1.6-0.0
2018-Apr-13 09:00N 45°24' W 052°00'6 6.0 330 / 151023.1 0.5-1.6
2018-Apr-13 08:00N 45°30' W 052°00'15 7.3 350 / 141022.3 0.3-0.5
2018-Apr-13 06:00N 45°42' W 052°12'7 7.3 340 / 131021.0 -0.4-0.6
2018-Apr-13 05:00N 45°48' W 052°18'7 7.3 340 / 151020.6 -0.5-0.6
2018-Apr-13 04:00N 45°54' W 052°24'1312.7 340 / 141020.4 -0.7-0.8
2018-Apr-13 03:00N 46°06' W 052°30'0 0.0 340 / 161020.0 -0.8-0.9
2018-Apr-13 02:00N 46°06' W 052°30'7 7.3 010 / 151019.2 -0.5-0.6
2018-Apr-13 01:00N 46°12' W 052°36'7 7.3 360 / 141018.9 -0.9-1.0
2018-Apr-13 00:00N 46°18' W 052°42'0 0.0 040 / 101018.6 -0.9-1.1
2018-Apr-12 23:00N 46°18' W 052°42'7 7.3 010 / 181017.6 -0.7-0.9
2018-Apr-12 22:00N 46°24' W 052°48'7 7.3 020 / 181017.0 -0.8-0.9
2018-Apr-12 21:00N 46°30' W 052°54'0 0.0 030 / 181017.0 -0.1-0.2
2018-Apr-12 20:00N 46°30' W 052°54'6 6.0 020 / 201016.4 -0.8-0.9
2018-Apr-12 19:00N 46°36' W 052°54'4 4.1 020 / 221016.5 -0.2-0.4
2018-Apr-12 18:00N 46°36' W 053°00'1413.8 040 / 221015.9 -0.6-0.8
2018-Apr-12 17:00N 46°30' W 053°18'8 8.3 050 / 181016.5 -0.7-0.8
2018-Apr-12 16:00N 46°30' W 053°30'1010.2 070 / 141017.1 -0.6-0.8
2018-Apr-12 15:00N 46°24' W 053°42'8 8.3 070 / 171017.2 -0.6-0.7
2018-Apr-12 14:00N 46°24' W 053°54'1413.8 080 / 161018.1 -0.6-0.8
2018-Apr-12 13:00N 46°18' W 054°12'8 8.3 080 / 141017.8 -0.6-0.8
2018-Apr-12 12:00N 46°18' W 054°24'1010.2 080 / 131018.0 -1.0-1.1
2018-Apr-12 11:00N 46°12' W 054°36'1212.5 090 / 111017.7 -0.3-0.4
2018-Apr-12 10:00N 46°12' W 054°54'1010.3 040 / 101017.1 0.3 0.2
2018-Apr-12 09:00N 46°06' W 055°06'8 8.3 030 / 101017.4 0.1-0.0
2018-Apr-12 08:00N 46°06' W 055°18'1413.9 020 / 91017.9 0.1-0.0
2018-Apr-12 07:00N 46°00' W 055°36'1010.3 020 / 101018.7 0.1-0.0
2018-Apr-12 06:00N 45°54' W 055°48'8 8.4 010 / 101019.1 -0.1-0.2
2018-Apr-12 05:00N 45°54' W 056°00'1312.5 020 / 101019.2 -0.3-0.4
2018-Apr-12 04:00N 45°54' W 056°18'1010.3 050 / 111019.0 -0.3-0.5
2018-Apr-12 03:00N 45°48' W 056°30'2210.9 060 / 121018.5 -0.1-0.2
2018-Apr-12 01:00N 45°42' W 057°00'1413.9 050 / 121019.3 0.5 0.4
2018-Apr-12 00:00N 45°36' W 057°18'4 4.2 060 / 221019.1 0.6 0.4
2018-Apr-11 23:00N 45°36' W 057°24'0 0.0 050 / 131019.5 0.8 0.6
2018-Apr-11 22:00N 45°36' W 057°24'10 5.2 040 / 41019.6 0.9 0.8
2018-Apr-11 20:00N 45°42' W 057°12'4 4.2 060 / 111019.2 0.8 0.7
2018-Apr-11 19:00N 45°42' W 057°18'4 4.2 080 / 71019.3 2.4 2.3
2018-Apr-11 18:00N 45°42' W 057°12'0 0.0 070 / 81019.4 1.1 1.0
2018-Apr-11 17:00N 45°42' W 057°12'15 7.3 090 / 61019.8 1.1 1.0
2018-Apr-11 15:00N 45°54' W 057°00'0 0.0 090 / 81020.6 1.6 1.4
2018-Apr-11 14:00N 45°54' W 057°00'4 4.2 100 / 51021.7 1.7 1.5
2018-Apr-11 13:00N 45°54' W 056°54'0 0.0 100 / 51022.1 1.2 1.0
2018-Apr-11 12:00N 45°54' W 056°54'17 8.7 120 / 41022.5 1.1 1.0
2018-Apr-11 10:00N 46°06' W 056°36'7 7.3 190 / 91023.2 0.5 0.3
2018-Apr-11 09:00N 46°12' W 056°30'4 4.2 200 / 101023.4 0.4 0.3
2018-Apr-11 08:00N 46°12' W 056°24'7 7.3 200 / 91023.1 0.2 0.1
2018-Apr-11 07:00N 46°18' W 056°18'17 8.6 190 / 121023.1 0.2 0.1
2018-Apr-11 05:00N 46°30' W 056°00'0 0.0 240 / 81024.1 0.3 0.1
2018-Apr-11 04:00N 46°30' W 056°00'1010.2 270 / 101024.1 0.2-0.0
2018-Apr-11 03:00N 46°36' W 055°48'7 7.3 270 / 161024.3 -0.0-0.6
2018-Apr-11 02:00N 46°42' W 055°42'10 5.1 270 / 171023.7 0.1-0.9
2018-Apr-11 00:00N 46°48' W 055°30'8 8.2 270 / 301022.8 0.1-0.6
2018-Apr-10 23:00N 46°48' W 055°18'8 8.2 280 / 241021.3 0.2-0.5
2018-Apr-10 22:00N 46°48' W 055°06'14 6.8 270 / 241020.3 0.6-0.4
2018-Apr-10 20:00N 46°54' W 054°48'1010.2 270 / 251018.2 1.1-0.3
2018-Apr-10 19:00N 47°00' W 054°36'7 7.3 280 / 251017.5 1.1 0.1
2018-Apr-10 18:00N 47°06' W 054°30'4 4.1 290 / 261017.1 1.4-0.5
2018-Apr-10 17:00N 47°06' W 054°24'7 7.3 270 / 251016.5 1.3-0.1
2018-Apr-10 16:00N 47°12' W 054°18'4 4.1 270 / 261015.6 1.2 0.2
2018-Apr-10 15:00N 47°12' W 054°12'6 6.0 270 / 251015.0 1.2 0.3
2018-Apr-10 14:00N 47°18' W 054°12'4 4.1 270 / 251014.7 1.2 0.8
2018-Apr-10 13:00N 47°18' W 054°06'4 4.1 260 / 271013.8 0.8 0.6
2018-Apr-10 12:00N 47°18' W 054°00'4 4.1 270 / 271012.7 0.7 0.6
2018-Apr-10 11:00N 47°18' W 053°54'0 0.0 250 / 231012.5 0.4 0.2
2018-Apr-10 10:00N 47°18' W 053°54'0 0.0 250 / 201011.5 0.6 0.4
2018-Apr-10 09:00N 47°18' W 053°54'0 0.0 260 / 191010.7 0.2-0.0
2018-Apr-10 08:00N 47°18' W 053°54'0 0.0 260 / 171009.7 0.1-0.1
2018-Apr-10 07:00N 47°18' W 053°54'0 0.0 260 / 191008.7 0.2-0.0
2018-Apr-10 06:00N 47°18' W 053°54'0 0.0 240 / 271007.7 -0.3-0.5
2018-Apr-10 05:00N 47°18' W 053°54'0 0.0 240 / 321007.1 -0.4-0.5
2018-Apr-10 04:00N 47°18' W 053°54'0 0.0 240 / 321006.4 -0.4-0.6
2018-Apr-10 03:00N 47°18' W 053°54'0 0.0 240 / 341005.6 -0.3-0.5
2018-Apr-10 02:00N 47°18' W 053°54'0 0.0 240 / 351004.8 -0.5-0.6
2018-Apr-10 01:00N 47°18' W 053°54'0 0.0 240 / 351004.3 -0.5-0.7
2018-Apr-10 00:00N 47°18' W 053°54'   240 / 391003.3 -0.6-0.8
Track history (hours):
 
Tides and Currents Weather Stations Pressure Air Temp Water Temp Dewpoint Dewpoint Depression Visibility Wind Speed Wind Dir Waves Ship Positions

Teleost

Last reported at 2018-Apr-20 00:00 UTC. Time now 2018-Apr-20 00:52 UTC.
Position N 47°00' W 046°12'.

; draft 7.2 m.

Type: Ship. MMSI: 316002140.

Wind from 250 at 33 knots

Barometer 1011.7 mb
Air temperature 3.1 ° C
Dewpoint 3.1 ° C

Date/timePositionNaut miles runAvg speedWind from/ knotsBaromVisibWave heightAir tempDewpointWater temp
2018-Apr-20 00:00N 47°00' W 046°12'1212.3 250 / 331011.7 3.1 3.1
2018-Apr-19 23:00N 47°00' W 045°54'4 4.1 240 / 211011.2 3.6 3.6
2018-Apr-19 22:00N 47°00' W 046°00'1010.2 220 / 161010.7 3.1 3.2
2018-Apr-19 21:00N 46°54' W 045°48'12 6.1 230 / 141011.0 3.5 3.6
2018-Apr-19 19:00N 46°54' W 045°30'0 0.0 230 / 101009.8 4.0 4.1
2018-Apr-19 18:00N 46°54' W 045°30'7 7.3 250 / 141009.2 3.8 3.9
2018-Apr-19 17:00N 47°00' W 045°24'8 8.2 200 / 81009.0 3.8 3.9
2018-Apr-19 16:00N 47°00' W 045°12'4 2.0 180 / 61009.1 3.7 3.8
2018-Apr-19 14:00N 47°00' W 045°06'8 8.2 190 / 91010.5 3.9 3.9
2018-Apr-19 13:00N 47°00' W 044°54'4 4.1 210 / 111010.8 4.0 4.0
2018-Apr-19 12:00N 47°00' W 044°48'6 6.0 210 / 191010.5 3.9 3.9
2018-Apr-19 11:00N 46°54' W 044°48'8 8.2 240 / 161010.6 4.3 4.3
2018-Apr-19 10:00N 46°54' W 044°36'4 4.1 240 / 191010.1 4.2 4.3
2018-Apr-19 09:00N 46°54' W 044°30'7 7.3 260 / 201009.1 4.3 4.3
2018-Apr-19 08:00N 47°00' W 044°24'1010.2 260 / 281007.5 4.5 4.7
2018-Apr-19 07:00N 46°54' W 044°12'6 6.0 230 / 241007.0 5.5 5.6
2018-Apr-19 06:00N 47°00' W 044°12'4 4.1 210 / 231006.6 6.6 6.7
2018-Apr-19 05:00N 47°00' W 044°06'12 6.1 190 / 221007.0 7.1 7.2
2018-Apr-19 03:00N 47°00' W 043°48'0 0.0 150 / 241009.2 6.5 6.6
2018-Apr-19 02:00N 47°00' W 043°48'7 7.3 140 / 241011.2 6.2 6.2
2018-Apr-19 01:00N 46°54' W 043°42'12 6.1 130 / 231014.1 4.9 4.8
2018-Apr-18 23:00N 46°54' W 043°24'0 0.0 150 / 121017.6 3.0 2.9
2018-Apr-18 22:00N 46°54' W 043°24'4 4.1 160 / 161018.9 2.2 2.1
2018-Apr-18 21:00N 46°54' W 043°18'8 8.2 160 / 121019.0 1.6 1.5
2018-Apr-18 20:00N 46°54' W 043°06'8 8.2 210 / 81020.1 1.4 1.3
2018-Apr-18 19:00N 46°54' W 042°54'0 0.0 230 / 111020.3 1.7 1.6
2018-Apr-18 18:00N 46°54' W 042°54'0 0.0 250 / 121020.5 1.9 1.7
2018-Apr-18 17:00N 46°54' W 042°54'4 4.1 260 / 141020.5 2.0 1.8
2018-Apr-18 16:00N 46°54' W 043°00'2010.2 270 / 161020.7 1.7 1.5
2018-Apr-18 14:00N 46°42' W 043°24'7 7.3 280 / 161021.5 1.5 1.3
2018-Apr-18 13:00N 46°36' W 043°30'7 7.3 280 / 171021.7 1.2 1.1
2018-Apr-18 12:00N 46°30' W 043°36'1010.2 290 / 171021.6 1.2 1.1
2018-Apr-18 11:00N 46°24' W 043°48'2210.9 280 / 151021.5 0.9 0.8
2018-Apr-18 09:00N 46°06' W 044°06'7 7.3 290 / 171021.2 0.5 0.4
2018-Apr-18 08:00N 46°00' W 044°12'1010.3 280 / 181021.0 0.5 0.4
2018-Apr-18 07:00N 45°54' W 044°24'7 7.3 290 / 161021.0 0.5 0.4
2018-Apr-18 06:00N 45°48' W 044°30'17 8.7 280 / 181021.2 0.5 0.4
2018-Apr-18 04:00N 45°36' W 044°48'7 7.3 290 / 151022.0 0.3 0.1
2018-Apr-18 03:00N 45°30' W 044°54'1717.4 300 / 191022.3 0.3 0.2
2018-Apr-18 02:00N 45°18' W 045°12'7 7.3 310 / 181022.4 0.4 0.2
2018-Apr-18 01:00N 45°12' W 045°18'2512.4 300 / 201023.0 0.4 0.2
2018-Apr-17 23:00N 44°54' W 045°42'4 4.3 300 / 191022.8 0.1-0.1
2018-Apr-17 22:00N 44°54' W 045°48'1010.4 320 / 181022.0 0.2-0.2
2018-Apr-17 21:00N 44°48' W 046°00'7 7.4 310 / 211022.0 0.1-0.6
2018-Apr-17 20:00N 44°42' W 046°06'2110.4 310 / 221021.4 0.4-0.4
2018-Apr-17 18:00N 44°30' W 046°30'4 4.3 310 / 271020.6 1.6 0.8
2018-Apr-17 17:00N 44°30' W 046°36'1010.5 310 / 281020.4 3.0 1.5
2018-Apr-17 16:00N 44°24' W 046°48'7 7.4 290 / 251020.7 3.0 1.4
2018-Apr-17 15:00N 44°18' W 046°54'6 3.0 300 / 241020.9 2.8 1.5
2018-Apr-17 13:00N 44°12' W 046°54'0 0.0 300 / 221021.4 2.2 1.4
2018-Apr-17 12:00N 44°12' W 046°54'0 0.0 310 / 241021.3 1.9 1.1
2018-Apr-17 11:00N 44°12' W 046°54'7 7.4 310 / 261021.3 1.7 0.8
2018-Apr-17 10:00N 44°06' W 046°48'4 4.3 310 / 271021.4 1.3 0.5
2018-Apr-17 09:00N 44°06' W 046°54'1514.8 300 / 241021.7 1.1 0.5
2018-Apr-17 08:00N 43°54' W 047°06'0 0.0 300 / 231021.7 0.7 0.3
2018-Apr-17 07:00N 43°54' W 047°06'0 0.0 300 / 221021.7 0.6-0.0
2018-Apr-17 06:00N 43°54' W 047°06'6 3.0 320 / 251021.8 0.5-0.4
2018-Apr-17 04:00N 43°48' W 047°06'0 0.0 310 / 241022.3 -0.0-0.7
2018-Apr-17 03:00N 43°48' W 047°06'6 6.0 320 / 251022.5 -0.0-0.9
2018-Apr-17 02:00N 43°42' W 047°06'4 4.3 330 / 281022.3 -0.1-1.5
2018-Apr-17 01:00N 43°42' W 047°12'7 7.4 310 / 281022.3 -0.3-1.6
2018-Apr-17 00:00N 43°36' W 047°18'7 7.4 330 / 321022.2 -0.0-0.7
2018-Apr-16 23:00N 43°30' W 047°24'1110.6 320 / 241022.3 -0.3-0.4
2018-Apr-16 22:00N 43°24' W 047°36'7 7.4 300 / 221022.5 0.5 0.4
2018-Apr-16 21:00N 43°18' W 047°42'4 4.4 310 / 261022.6 0.8 0.6
2018-Apr-16 20:00N 43°18' W 047°48'7 7.4 310 / 261022.7 1.2 1.0
2018-Apr-16 19:00N 43°12' W 047°54'7 7.4 310 / 231023.1 1.3 1.0
2018-Apr-16 18:00N 43°06' W 048°00'1110.6 310 / 281023.6 1.0 0.5
2018-Apr-16 17:00N 43°00' W 048°12'7 7.4 310 / 261024.2 1.0 0.5
2018-Apr-16 16:00N 42°54' W 048°18'9 8.8 320 / 241024.6 1.4 1.2
2018-Apr-16 15:00N 42°54' W 048°30'7 7.4 320 / 231025.2 1.4 1.2
2018-Apr-16 14:00N 42°48' W 048°36'7 7.4 320 / 271025.3 1.3 0.8
2018-Apr-16 13:00N 42°42' W 048°42'1110.7 330 / 251025.3 1.7 1.4
2018-Apr-16 12:00N 42°36' W 048°54'4 4.4 330 / 241025.1 2.0 1.4
2018-Apr-16 11:00N 42°36' W 049°00'1110.7 340 / 241025.3 1.8 1.3
2018-Apr-16 10:00N 42°30' W 049°12'6 3.0 330 / 261025.1 1.6 1.3
2018-Apr-16 08:00N 42°24' W 049°12'4 4.4 340 / 281024.3 2.0 1.8
2018-Apr-16 07:00N 42°24' W 049°06'0 0.0 340 / 281023.8 2.2 2.0
2018-Apr-16 06:00N 42°24' W 049°06'4 4.4 330 / 311023.3 2.4 2.2
2018-Apr-16 05:00N 42°24' W 049°00'4 2.2 340 / 291023.1 2.5 2.3
2018-Apr-16 03:00N 42°24' W 048°54'0 0.0 330 / 321022.5 2.0 1.8
2018-Apr-16 02:00N 42°24' W 048°54'6 6.0 320 / 321022.1 2.1 1.9
2018-Apr-16 01:00N 42°18' W 048°54'4 1.5 320 / 311021.9 1.9 1.7
2018-Apr-15 22:00N 42°18' W 048°48'0 0.0 310 / 331019.8 2.1 1.9
2018-Apr-15 21:00N 42°18' W 048°48'0 0.0 310 / 321019.0 2.2 2.1
2018-Apr-15 20:00N 42°18' W 048°48'0 0.0 300 / 341018.4 2.6 2.4
2018-Apr-15 19:00N 42°18' W 048°48'6 3.0 310 / 331018.1 2.7 2.4
2018-Apr-15 17:00N 42°12' W 048°48'0 0.0 300 / 331018.3 2.9 2.7
2018-Apr-15 16:00N 42°12' W 048°48'0 0.0 310 / 351018.2 2.8 2.1
2018-Apr-15 15:00N 42°12' W 048°48'4 4.4 310 / 331018.2 2.8 2.4
2018-Apr-15 14:00N 42°12' W 048°42'7 3.7 300 / 331018.1 2.9 2.5
2018-Apr-15 12:00N 42°06' W 048°48'7 7.5 300 / 261017.6 2.3 2.2
2018-Apr-15 11:00N 42°00' W 048°54'1110.8 310 / 281016.7 2.9 2.7
2018-Apr-15 10:00N 41°54' W 049°06'6 6.0 300 / 271015.9 4.2 4.1
2018-Apr-15 09:00N 41°48' W 049°06'6 3.0 320 / 281015.3 4.2 4.1
2018-Apr-15 07:00N 41°54' W 049°06'0 0.0 320 / 311013.5 5.4 5.4
2018-Apr-15 06:00N 41°54' W 049°06'4 4.5 320 / 251012.2 7.8 7.8
2018-Apr-15 05:00N 41°54' W 049°00'4 4.5 310 / 171011.7 8.0 8.1
2018-Apr-15 04:00N 41°54' W 049°06'6 6.0 280 / 291011.3 10.510.6
2018-Apr-15 03:00N 42°00' W 049°06'0 0.0 280 / 261011.3 10.811.0
2018-Apr-15 02:00N 42°00' W 049°06'7 7.5 240 / 321010.2 12.913.1
2018-Apr-15 01:00N 42°06' W 049°12'0 0.0 240 / 321010.9 12.312.5
2018-Apr-15 00:00N 42°06' W 049°12'4 4.5 240 / 331011.1 12.112.3
2018-Apr-14 23:00N 42°06' W 049°18'1312.8 230 / 281011.2 11.411.7
2018-Apr-14 22:00N 42°18' W 049°24'7 7.5 240 / 261011.4 11.511.7
2018-Apr-14 21:00N 42°24' W 049°30'0 0.0 230 / 261011.2 11.611.9
2018-Apr-14 20:00N 42°24' W 049°30'7 7.5 230 / 221012.1 10.911.1
2018-Apr-14 19:00N 42°30' W 049°36'7 7.5 210 / 191012.5 9.910.1
2018-Apr-14 18:00N 42°36' W 049°42'0 0.0 200 / 151013.8 9.1 9.3
2018-Apr-14 17:00N 42°36' W 049°42'0 0.0 220 / 131014.8 9.3 9.4
2018-Apr-14 16:00N 42°36' W 049°42'6 6.0 240 / 121015.9 8.8 8.9
2018-Apr-14 15:00N 42°42' W 049°42'4 4.4 230 / 121016.1 8.0 8.1
2018-Apr-14 14:00N 42°42' W 049°48'6 6.0 250 / 91016.5 7.7 7.8
2018-Apr-14 13:00N 42°48' W 049°48'0 0.0 260 / 151016.4 7.7 7.9
2018-Apr-14 12:00N 42°48' W 049°48'4 4.4 260 / 161016.3 7.4 7.5
2018-Apr-14 11:00N 42°48' W 049°54'0 0.0 260 / 121015.7 6.9 7.0
2018-Apr-14 10:00N 42°48' W 049°54'6 6.0 260 / 161015.4 7.1 7.3
2018-Apr-14 09:00N 42°54' W 049°54'0 0.0 280 / 91015.0 7.8 7.9
2018-Apr-14 07:00N 42°54' W 049°54'1514.9 180 / 261014.0 5.8 5.9
2018-Apr-14 06:00N 43°06' W 050°06'7 7.4 160 / 231015.6 3.8 3.9
2018-Apr-14 05:00N 43°12' W 050°12'0 0.0 150 / 261017.4 3.4 3.3
2018-Apr-14 04:00N 43°12' W 050°12'2010.0 150 / 211019.0 3.0 2.9
2018-Apr-14 02:00N 43°30' W 050°24'7 7.4 160 / 221021.5 2.4 2.3
2018-Apr-14 01:00N 43°36' W 050°30'7 7.4 150 / 221022.7 1.8 1.6
2018-Apr-14 00:00N 43°42' W 050°36'1312.8 160 / 261023.6 1.8 1.6
2018-Apr-13 23:00N 43°54' W 050°42'7 3.7 170 / 161024.2 1.9 1.7
2018-Apr-13 21:00N 44°00' W 050°48'1312.8
2018-Apr-13 20:00N 44°12' W 050°54'1010.5 200 / 81025.6 1.6 0.8
2018-Apr-13 19:00N 44°18' W 051°06'6 6.0 190 / 71025.6 1.8 0.7
2018-Apr-13 18:00N 44°24' W 051°06'15 7.4 150 / 21025.5 1.8 0.4
2018-Apr-13 16:00N 44°36' W 051°18'7 7.4 330 / 21026.3 1.5 0.2
2018-Apr-13 15:00N 44°42' W 051°24'15 7.4 330 / 51026.5 1.5-0.1
2018-Apr-13 13:00N 44°54' W 051°36'13 6.4 350 / 81025.7 1.7 0.4
2018-Apr-13 11:00N 45°06' W 051°42'1514.7 330 / 111025.0 3.0 1.3
2018-Apr-13 10:00N 45°18' W 051°54'7 7.3 330 / 121024.1 1.6-0.0
2018-Apr-13 09:00N 45°24' W 052°00'6 6.0 330 / 151023.1 0.5-1.6
2018-Apr-13 08:00N 45°30' W 052°00'15 7.3 350 / 141022.3 0.3-0.5
2018-Apr-13 06:00N 45°42' W 052°12'7 7.3 340 / 131021.0 -0.4-0.6
2018-Apr-13 05:00N 45°48' W 052°18'7 7.3 340 / 151020.6 -0.5-0.6
2018-Apr-13 04:00N 45°54' W 052°24'1312.7 340 / 141020.4 -0.7-0.8
2018-Apr-13 03:00N 46°06' W 052°30'0 0.0 340 / 161020.0 -0.8-0.9
2018-Apr-13 02:00N 46°06' W 052°30'7 7.3 010 / 151019.2 -0.5-0.6
2018-Apr-13 01:00N 46°12' W 052°36'7 7.3 360 / 141018.9 -0.9-1.0
2018-Apr-13 00:00N 46°18' W 052°42'0 0.0 040 / 101018.6 -0.9-1.1
2018-Apr-12 23:00N 46°18' W 052°42'7 7.3 010 / 181017.6 -0.7-0.9
2018-Apr-12 22:00N 46°24' W 052°48'7 7.3 020 / 181017.0 -0.8-0.9
2018-Apr-12 21:00N 46°30' W 052°54'0 0.0 030 / 181017.0 -0.1-0.2
2018-Apr-12 20:00N 46°30' W 052°54'6 6.0 020 / 201016.4 -0.8-0.9
2018-Apr-12 19:00N 46°36' W 052°54'4 4.1 020 / 221016.5 -0.2-0.4
2018-Apr-12 18:00N 46°36' W 053°00'1413.8 040 / 221015.9 -0.6-0.8
2018-Apr-12 17:00N 46°30' W 053°18'8 8.3 050 / 181016.5 -0.7-0.8
2018-Apr-12 16:00N 46°30' W 053°30'1010.2 070 / 141017.1 -0.6-0.8
2018-Apr-12 15:00N 46°24' W 053°42'8 8.3 070 / 171017.2 -0.6-0.7
2018-Apr-12 14:00N 46°24' W 053°54'1413.8 080 / 161018.1 -0.6-0.8
2018-Apr-12 13:00N 46°18' W 054°12'8 8.3 080 / 141017.8 -0.6-0.8
2018-Apr-12 12:00N 46°18' W 054°24'1010.2 080 / 131018.0 -1.0-1.1
2018-Apr-12 11:00N 46°12' W 054°36'1212.5 090 / 111017.7 -0.3-0.4
2018-Apr-12 10:00N 46°12' W 054°54'1010.3 040 / 101017.1 0.3 0.2
2018-Apr-12 09:00N 46°06' W 055°06'8 8.3 030 / 101017.4 0.1-0.0
2018-Apr-12 08:00N 46°06' W 055°18'1413.9 020 / 91017.9 0.1-0.0
2018-Apr-12 07:00N 46°00' W 055°36'1010.3 020 / 101018.7 0.1-0.0
2018-Apr-12 06:00N 45°54' W 055°48'8 8.4 010 / 101019.1 -0.1-0.2
2018-Apr-12 05:00N 45°54' W 056°00'1312.5 020 / 101019.2 -0.3-0.4
2018-Apr-12 04:00N 45°54' W 056°18'1010.3 050 / 111019.0 -0.3-0.5
2018-Apr-12 03:00N 45°48' W 056°30'2210.9 060 / 121018.5 -0.1-0.2
2018-Apr-12 01:00N 45°42' W 057°00'1413.9 050 / 121019.3 0.5 0.4
2018-Apr-12 00:00N 45°36' W 057°18'4 4.2 060 / 221019.1 0.6 0.4
2018-Apr-11 23:00N 45°36' W 057°24'0 0.0 050 / 131019.5 0.8 0.6
2018-Apr-11 22:00N 45°36' W 057°24'10 5.2 040 / 41019.6 0.9 0.8
2018-Apr-11 20:00N 45°42' W 057°12'4 4.2 060 / 111019.2 0.8 0.7
2018-Apr-11 19:00N 45°42' W 057°18'4 4.2 080 / 71019.3 2.4 2.3
2018-Apr-11 18:00N 45°42' W 057°12'0 0.0 070 / 81019.4 1.1 1.0
2018-Apr-11 17:00N 45°42' W 057°12'15 7.3 090 / 61019.8 1.1 1.0
2018-Apr-11 15:00N 45°54' W 057°00'0 0.0 090 / 81020.6 1.6 1.4
2018-Apr-11 14:00N 45°54' W 057°00'4 4.2 100 / 51021.7 1.7 1.5
2018-Apr-11 13:00N 45°54' W 056°54'0 0.0 100 / 51022.1 1.2 1.0
2018-Apr-11 12:00N 45°54' W 056°54'17 8.7 120 / 41022.5 1.1 1.0
2018-Apr-11 10:00N 46°06' W 056°36'7 7.3 190 / 91023.2 0.5 0.3
2018-Apr-11 09:00N 46°12' W 056°30'4 4.2 200 / 101023.4 0.4 0.3
2018-Apr-11 08:00N 46°12' W 056°24'7 7.3 200 / 91023.1 0.2 0.1
2018-Apr-11 07:00N 46°18' W 056°18'17 8.6 190 / 121023.1 0.2 0.1
2018-Apr-11 05:00N 46°30' W 056°00'0 0.0 240 / 81024.1 0.3 0.1
2018-Apr-11 04:00N 46°30' W 056°00'1010.2 270 / 101024.1 0.2-0.0
2018-Apr-11 03:00N 46°36' W 055°48'7 7.3 270 / 161024.3 -0.0-0.6
2018-Apr-11 02:00N 46°42' W 055°42'10 5.1 270 / 171023.7 0.1-0.9
2018-Apr-11 00:00N 46°48' W 055°30'8 8.2 270 / 301022.8 0.1-0.6
2018-Apr-10 23:00N 46°48' W 055°18'8 8.2 280 / 241021.3 0.2-0.5
2018-Apr-10 22:00N 46°48' W 055°06'14 6.8 270 / 241020.3 0.6-0.4
2018-Apr-10 20:00N 46°54' W 054°48'1010.2 270 / 251018.2 1.1-0.3
2018-Apr-10 19:00N 47°00' W 054°36'7 7.3 280 / 251017.5 1.1 0.1
2018-Apr-10 18:00N 47°06' W 054°30'4 4.1 290 / 261017.1 1.4-0.5
2018-Apr-10 17:00N 47°06' W 054°24'7 7.3 270 / 251016.5 1.3-0.1
2018-Apr-10 16:00N 47°12' W 054°18'4 4.1 270 / 261015.6 1.2 0.2
2018-Apr-10 15:00N 47°12' W 054°12'6 6.0 270 / 251015.0 1.2 0.3
2018-Apr-10 14:00N 47°18' W 054°12'4 4.1 270 / 251014.7 1.2 0.8
2018-Apr-10 13:00N 47°18' W 054°06'4 4.1 260 / 271013.8 0.8 0.6
2018-Apr-10 12:00N 47°18' W 054°00'4 4.1 270 / 271012.7 0.7 0.6
2018-Apr-10 11:00N 47°18' W 053°54'0 0.0 250 / 231012.5 0.4 0.2
2018-Apr-10 10:00N 47°18' W 053°54'0 0.0 250 / 201011.5 0.6 0.4
2018-Apr-10 09:00N 47°18' W 053°54'0 0.0 260 / 191010.7 0.2-0.0
2018-Apr-10 08:00N 47°18' W 053°54'0 0.0 260 / 171009.7 0.1-0.1
2018-Apr-10 07:00N 47°18' W 053°54'0 0.0 260 / 191008.7 0.2-0.0
2018-Apr-10 06:00N 47°18' W 053°54'0 0.0 240 / 271007.7 -0.3-0.5
2018-Apr-10 05:00N 47°18' W 053°54'0 0.0 240 / 321007.1 -0.4-0.5
2018-Apr-10 04:00N 47°18' W 053°54'0 0.0 240 / 321006.4 -0.4-0.6
2018-Apr-10 03:00N 47°18' W 053°54'0 0.0 240 / 341005.6 -0.3-0.5
2018-Apr-10 02:00N 47°18' W 053°54'0 0.0 240 / 351004.8 -0.5-0.6
2018-Apr-10 01:00N 47°18' W 053°54'0 0.0 240 / 351004.3 -0.5-0.7
2018-Apr-10 00:00N 47°18' W 053°54'   240 / 391003.3 -0.6-0.8

Dump ship's entire track history